Time;durP1;ratioP1;P1;durP2;ratioP2;P2;SDS_P1;SDS_P2;PMS_P1;PMS_P2;Temp;Humidity;BMP_temperature;BMP_pressure;BME280_temperature;BME280_humidity;BME280_pressure;Samples;Min_cycle;Max_cycle;Signal;HPM_P1;HPM_P2
2021/03/19 00:01:52;;;;;;;14.95;12.45;;;4.50;99.90;;;;;;5053338;28;20190;-80
2021/03/19 00:04:18;;;;;;;14.02;11.90;;;4.50;99.90;;;;;;5053280;28;20213;-79
2021/03/19 00:06:44;;;;;;;14.15;11.70;;;4.50;99.90;;;;;;5053411;28;20641;-79
2021/03/19 00:09:11;;;;;;;16.52;12.10;;;4.50;99.90;;;;;;5050552;28;20178;-79
2021/03/19 00:11:39;;;;;;;14.88;12.93;;;4.40;99.90;;;;;;5038259;28;20215;-79
2021/03/19 00:14:09;;;;;;;16.02;11.98;;;4.40;99.90;;;;;;5033272;28;20244;-79
2021/03/19 00:16:35;;;;;;;17.20;13.45;;;4.30;99.90;;;;;;5033099;28;20285;-79
2021/03/19 00:19:03;;;;;;;18.42;12.93;;;4.20;99.90;;;;;;5033027;28;20666;-80
2021/03/19 00:21:29;;;;;;;18.27;13.50;;;4.10;99.90;;;;;;5033015;28;20198;-80
2021/03/19 00:23:56;;;;;;;14.43;12.80;;;4.00;99.90;;;;;;5033024;28;20230;-80
2021/03/19 00:26:22;;;;;;;17.00;12.60;;;3.90;99.90;;;;;;5032973;28;20646;-80
2021/03/19 00:28:49;;;;;;;15.60;12.98;;;3.80;99.90;;;;;;5033007;28;20226;-80
2021/03/19 00:31:16;;;;;;;16.45;13.15;;;3.80;99.90;;;;;;5032894;28;20245;-79
2021/03/19 00:33:42;;;;;;;18.40;14.15;;;3.70;99.90;;;;;;5048570;28;20228;-80
2021/03/19 00:36:09;;;;;;;22.08;13.63;;;3.70;99.90;;;;;;5052860;28;20190;-80
2021/03/19 00:38:35;;;;;;;20.52;13.60;;;3.60;99.90;;;;;;5052937;28;20205;-80
2021/03/19 00:41:01;;;;;;;20.48;15.45;;;3.60;99.90;;;;;;5052172;28;20277;-79
2021/03/19 00:43:27;;;;;;;18.95;14.23;;;3.70;99.90;;;;;;5052775;28;20189;-79
2021/03/19 00:45:54;;;;;;;19.15;15.13;;;3.80;99.90;;;;;;5052667;28;20222;-79
2021/03/19 00:48:21;;;;;;;18.92;14.23;;;3.90;99.90;;;;;;5043591;28;20722;-79
2021/03/19 00:50:47;;;;;;;19.05;15.40;;;4.00;99.90;;;;;;5051812;28;20245;-79
2021/03/19 00:53:13;;;;;;;19.50;13.88;;;4.00;99.90;;;;;;5044813;28;20217;-81
2021/03/19 00:55:42;;;;;;;16.20;14.00;;;4.10;99.90;;;;;;5052548;28;20225;-80
2021/03/19 00:58:08;;;;;;;14.90;12.57;;;4.20;99.90;;;;;;5052584;28;20186;-80
2021/03/19 01:00:37;;;;;;;15.48;13.00;;;4.20;99.90;;;;;;5052678;28;20251;-80
2021/03/19 01:03:05;;;;;;;17.08;12.70;;;4.20;99.90;;;;;;5052622;28;20279;-80
2021/03/19 01:05:34;;;;;;;14.50;12.25;;;4.20;99.90;;;;;;5052425;28;20222;-80
2021/03/19 01:08:01;;;;;;;13.65;11.10;;;4.20;99.90;;;;;;5052581;28;20213;-80
2021/03/19 01:10:30;;;;;;;14.82;12.63;;;4.20;99.90;;;;;;5052323;28;20210;-81
2021/03/19 01:12:57;;;;;;;12.80;10.90;;;4.10;99.90;;;;;;5052400;28;20615;-81
2021/03/19 01:15:24;;;;;;;16.27;11.10;;;4.10;99.90;;;;;;5052461;28;20549;-81
2021/03/19 01:17:52;;;;;;;15.18;11.13;;;4.10;99.90;;;;;;5052666;28;20214;-81
2021/03/19 01:20:20;;;;;;;13.23;9.80;;;4.00;99.90;;;;;;5052482;28;20193;-81
2021/03/19 01:22:46;;;;;;;12.20;9.85;;;4.00;99.90;;;;;;5052364;28;20275;-81
2021/03/19 01:25:15;;;;;;;13.40;11.07;;;4.00;99.90;;;;;;5051972;28;20693;-80
2021/03/19 01:27:42;;;;;;;14.00;10.23;;;3.90;99.90;;;;;;5052568;28;20202;-80
2021/03/19 01:30:10;;;;;;;15.55;9.90;;;3.90;99.90;;;;;;5052380;28;20210;-81
2021/03/19 01:32:37;;;;;;;10.32;9.20;;;3.90;99.90;;;;;;5045639;28;20186;-81
2021/03/19 01:35:04;;;;;;;14.40;11.05;;;3.80;99.90;;;;;;5032637;28;20645;-80
2021/03/19 01:37:31;;;;;;;15.48;10.20;;;3.80;99.90;;;;;;5032666;28;20186;-81
2021/03/19 01:39:57;;;;;;;17.02;9.45;;;3.70;99.90;;;;;;5032369;28;20187;-81
2021/03/19 01:42:23;;;;;;;12.73;9.50;;;3.70;99.90;;;;;;5032522;28;20554;-79
2021/03/19 01:45:19;;;;;;;11.68;9.05;;;3.70;99.90;;;;;;5032550;28;20221;-81
2021/03/19 01:48:22;;;;;;;10.93;8.00;;;3.70;99.90;;;;;;4978829;28;20761;-80
2021/03/19 01:51:26;;;;;;;12.70;8.75;;;3.60;99.90;;;;;;5032387;28;20222;-80
2021/03/19 01:54:29;;;;;;;11.10;7.82;;;3.50;99.90;;;;;;5035976;28;20645;-80
2021/03/19 01:57:33;;;;;;;10.00;8.60;;;3.40;99.90;;;;;;5036030;28;20202;-80
2021/03/19 02:00:36;;;;;;;11.73;8.82;;;3.40;99.90;;;;;;5048207;28;20595;-81
2021/03/19 02:03:40;;;;;;;11.13;8.60;;;3.20;99.90;;;;;;5055997;28;20615;-80
2021/03/19 02:06:44;;;;;;;9.63;8.20;;;3.00;99.90;;;;;;5055644;28;20241;-81
2021/03/19 02:09:47;;;;;;;12.52;9.13;;;3.00;99.90;;;;;;5055516;28;20277;-80
2021/03/19 02:12:51;;;;;;;15.88;10.35;;;3.00;99.90;;;;;;5055713;28;20275;-80
2021/03/19 02:15:54;;;;;;;13.82;9.90;;;3.10;99.90;;;;;;5055284;28;20232;-81
2021/03/19 02:18:58;;;;;;;18.38;11.13;;;3.20;99.90;;;;;;5055603;28;20277;-80
2021/03/19 02:22:01;;;;;;;15.60;9.93;;;3.10;99.90;;;;;;5055230;28;20252;-80
2021/03/19 02:25:05;;;;;;;17.85;10.98;;;3.10;99.90;;;;;;5054729;28;20297;-80
2021/03/19 02:28:08;;;;;;;19.27;10.93;;;3.10;99.90;;;;;;5055145;28;20190;-79
2021/03/19 02:31:11;;;;;;;13.68;9.20;;;3.00;99.90;;;;;;5055047;28;20226;-79
2021/03/19 02:33:44;;;;;;;18.48;11.05;;;3.00;99.90;;;;;;5040097;28;20201;-78
2021/03/19 02:36:11;;;;;;;23.00;13.07;;;2.90;99.90;;;;;;5034933;28;20194;-79
2021/03/19 02:38:37;;;;;;;18.45;11.88;;;2.80;99.90;;;;;;5034111;28;20673;-78
2021/03/19 02:41:04;;;;;;;23.25;12.02;;;2.80;99.90;;;;;;5035112;28;20187;-78
2021/03/19 02:43:31;;;;;;;21.27;13.50;;;2.70;99.90;;;;;;5035217;28;20202;-78
2021/03/19 02:45:57;;;;;;;23.52;13.63;;;2.70;99.90;;;;;;5034957;28;20194;-80
2021/03/19 02:48:23;;;;;;;19.38;12.57;;;2.60;99.90;;;;;;5034999;28;20191;-80
2021/03/19 02:50:51;;;;;;;22.60;14.07;;;2.50;99.90;;;;;;5034353;28;20218;-80
2021/03/19 02:53:21;;;;;;;26.55;15.60;;;2.50;99.90;;;;;;5074868;28;20217;-80
2021/03/19 02:55:47;;;;;;;23.50;13.00;;;2.40;99.90;;;;;;5074702;28;20189;-80
2021/03/19 02:58:13;;;;;;;23.55;14.88;;;2.40;99.90;;;;;;5074771;28;20225;-80
2021/03/19 03:00:39;;;;;;;27.52;15.68;;;2.40;99.90;;;;;;5074479;28;20197;-80
2021/03/19 03:03:06;;;;;;;24.48;14.90;;;2.40;99.90;;;;;;5074243;28;20269;-80
2021/03/19 03:05:32;;;;;;;29.90;15.38;;;2.50;99.90;;;;;;5073962;28;20239;-80
2021/03/19 03:08:00;;;;;;;27.33;14.90;;;2.50;99.90;;;;;;5074495;28;20186;-80
2021/03/19 03:10:28;;;;;;;31.10;16.13;;;2.50;99.90;;;;;;5074258;28;20213;-80
2021/03/19 03:12:54;;;;;;;39.55;17.65;;;2.50;99.90;;;;;;5074259;28;20216;-80
2021/03/19 03:15:21;;;;;;;33.53;16.63;;;2.60;99.90;;;;;;5074193;28;20339;-80
2021/03/19 03:17:49;;;;;;;37.72;16.77;;;2.70;99.90;;;;;;5074141;28;20284;-79
2021/03/19 03:20:22;;;;;;;32.55;17.40;;;2.80;99.90;;;;;;5074265;28;20280;-79
2021/03/19 03:22:48;;;;;;;33.08;16.95;;;2.90;99.90;;;;;;5074126;28;20194;-79
2021/03/19 03:25:17;;;;;;;35.08;18.15;;;3.00;99.90;;;;;;5073866;28;20253;-79
2021/03/19 03:27:43;;;;;;;37.50;18.15;;;3.00;99.90;;;;;;5074158;28;20189;-79
2021/03/19 03:30:15;;;;;;;42.28;19.73;;;3.10;99.90;;;;;;5073832;28;20194;-79
2021/03/19 03:32:41;;;;;;;38.33;18.25;;;3.10;99.90;;;;;;5066905;28;20293;-79
2021/03/19 03:35:09;;;;;;;37.03;17.90;;;3.10;99.90;;;;;;5054036;28;20189;-79
2021/03/19 03:37:35;;;;;;;39.15;18.77;;;3.10;99.90;;;;;;5053999;28;20243;-79
2021/03/19 03:40:02;;;;;;;38.97;17.95;;;3.10;99.90;;;;;;5053912;28;20209;-79
2021/03/19 03:42:29;;;;;;;44.20;17.77;;;3.10;99.90;;;;;;5053675;28;20284;-79
2021/03/19 03:44:55;;;;;;;46.70;20.00;;;3.10;99.90;;;;;;5053624;28;20194;-78
2021/03/19 03:47:21;;;;;;;36.78;16.38;;;3.00;99.90;;;;;;5053749;28;20190;-78
2021/03/19 03:49:47;;;;;;;35.50;17.83;;;3.10;99.90;;;;;;5053607;28;20276;-78
2021/03/19 03:52:13;;;;;;;46.30;18.77;;;3.10;99.90;;;;;;5053436;28;20747;-80
2021/03/19 03:54:40;;;;;;;36.28;17.33;;;3.10;99.90;;;;;;5053561;28;20190;-79
2021/03/19 03:57:07;;;;;;;39.10;17.50;;;3.10;99.90;;;;;;5053441;28;20320;-80
2021/03/19 03:59:33;;;;;;;38.30;17.65;;;3.20;99.90;;;;;;5053286;28;20190;-81
2021/03/19 04:02:14;;;;;;;39.13;17.38;;;3.10;99.90;;;;;;5053418;28;20198;-81
2021/03/19 04:04:40;;;;;;;35.65;17.30;;;3.20;99.90;;;;;;5053587;28;20277;-81
2021/03/19 04:07:06;;;;;;;44.50;18.30;;;3.20;99.90;;;;;;5053100;28;20198;-81
2021/03/19 04:09:32;;;;;;;40.55;19.67;;;3.20;99.90;;;;;;5053307;28;20224;-80
2021/03/19 04:11:58;;;;;;;41.78;17.95;;;3.10;99.90;;;;;;5052888;28;20263;-80
2021/03/19 04:14:24;;;;;;;39.15;16.70;;;3.10;99.90;;;;;;5053429;28;20186;-79
2021/03/19 04:16:51;;;;;;;34.65;17.38;;;3.00;99.90;;;;;;5052062;28;20688;-80
2021/03/19 04:19:18;;;;;;;35.45;17.02;;;2.90;99.90;;;;;;5053237;28;20255;-80
2021/03/19 04:21:44;;;;;;;31.13;18.40;;;2.90;99.90;;;;;;5052833;28;20190;-80
2021/03/19 04:24:11;;;;;;;32.30;16.42;;;2.80;99.90;;;;;;5052883;28;20312;-80
2021/03/19 04:26:37;;;;;;;38.08;17.83;;;2.80;99.90;;;;;;5052800;28;20194;-80
2021/03/19 04:29:04;;;;;;;31.20;16.40;;;2.70;99.90;;;;;;5053091;28;20225;-80
2021/03/19 04:31:30;;;;;;;46.88;19.25;;;2.60;99.90;;;;;;5052648;28;20681;-81
2021/03/19 04:33:57;;;;;;;41.20;18.48;;;2.50;99.90;;;;;;5035415;28;20194;-81
2021/03/19 04:36:33;;;;;;;39.22;18.73;;;2.40;99.90;;;;;;5032790;28;20650;-79
2021/03/19 04:39:01;;;;;;;37.10;17.05;;;2.40;99.90;;;;;;5032915;28;20333;-79
2021/03/19 04:41:28;;;;;;;32.85;17.70;;;2.30;99.90;;;;;;5032971;28;20194;-79
2021/03/19 04:43:54;;;;;;;39.28;19.02;;;2.20;99.90;;;;;;5032863;28;20194;-79
2021/03/19 04:46:21;;;;;;;40.00;19.98;;;2.10;99.90;;;;;;5033255;28;20183;-79
2021/03/19 04:48:47;;;;;;;48.42;22.67;;;2.10;99.90;;;;;;5032900;28;20202;-79
2021/03/19 04:51:14;;;;;;;41.30;21.73;;;2.10;99.90;;;;;;5032553;28;20237;-79
2021/03/19 04:53:40;;;;;;;43.13;20.27;;;2.20;99.90;;;;;;5032556;28;20733;-79
2021/03/19 04:56:06;;;;;;;39.28;20.73;;;2.10;99.90;;;;;;5032865;28;20190;-79
2021/03/19 04:58:32;;;;;;;40.65;21.70;;;2.10;99.90;;;;;;5032869;28;20217;-79
2021/03/19 05:00:58;;;;;;;40.03;20.60;;;2.10;99.90;;;;;;5032879;28;20325;-79
2021/03/19 05:03:24;;;;;;;44.05;21.80;;;2.10;99.90;;;;;;5032501;28;20194;-79
2021/03/19 05:05:50;;;;;;;41.15;21.55;;;2.20;99.90;;;;;;5032597;28;20229;-79
2021/03/19 05:08:17;;;;;;;39.13;19.83;;;2.20;99.90;;;;;;5032337;28;20280;-79
2021/03/19 05:10:43;;;;;;;42.33;20.98;;;2.10;99.90;;;;;;5032406;28;20218;-79
2021/03/19 05:13:10;;;;;;;39.90;20.42;;;2.10;99.90;;;;;;5032641;28;20597;-79
2021/03/19 05:15:38;;;;;;;47.05;20.35;;;1.90;99.90;;;;;;5032665;28;20190;-79
2021/03/19 05:18:05;;;;;;;35.90;19.25;;;1.90;99.90;;;;;;5032551;28;20286;-86
2021/03/19 05:20:31;;;;;;;39.15;19.02;;;1.80;99.90;;;;;;5032527;28;20218;-83
2021/03/19 05:22:57;;;;;;;41.47;20.83;;;1.80;99.90;;;;;;5032287;28;20194;-85
2021/03/19 05:25:27;;;;;;;41.25;20.92;;;1.70;99.90;;;;;;5032259;28;20250;-84
2021/03/19 05:27:54;;;;;;;48.10;19.20;;;1.70;99.90;;;;;;5035107;28;20215;-86
2021/03/19 05:30:22;;;;;;;42.03;21.27;;;1.70;99.90;;;;;;5036373;28;20191;-84
2021/03/19 05:32:49;;;;;;;44.58;20.25;;;1.70;99.90;;;;;;5044432;28;20243;-85
2021/03/19 05:35:17;;;;;;;33.97;19.27;;;1.70;99.90;;;;;;5056074;28;20263;-84
2021/03/19 05:37:47;;;;;;;42.10;18.75;;;1.70;99.90;;;;;;5056190;28;20197;-79
2021/03/19 05:40:22;;;;;;;41.97;20.75;;;1.70;99.90;;;;;;5056234;28;20215;-80
2021/03/19 05:42:49;;;;;;;42.17;19.35;;;1.70;99.90;;;;;;5046837;28;20277;-82
2021/03/19 05:45:24;;;;;;;39.33;21.10;;;1.70;99.90;;;;;;5044635;28;20191;-82
2021/03/19 05:47:52;;;;;;;45.65;19.90;;;1.70;99.90;;;;;;5044429;28;20265;-79
2021/03/19 05:50:27;;;;;;;44.72;20.65;;;1.80;99.90;;;;;;5045476;28;20229;-79
2021/03/19 05:52:53;;;;;;;38.22;20.98;;;1.90;99.90;;;;;;5043277;28;20224;-79
2021/03/19 05:55:23;;;;;;;44.22;20.25;;;2.00;99.90;;;;;;5049503;28;20259;-80
2021/03/19 05:57:56;;;;;;;37.97;19.58;;;2.00;99.90;;;;;;5052249;28;20186;-80
2021/03/19 06:00:25;;;;;;;37.90;18.83;;;2.10;99.90;;;;;;5055537;28;20280;-79
2021/03/19 06:02:51;;;;;;;45.42;20.77;;;2.20;99.90;;;;;;5055763;28;20643;-89
2021/03/19 06:05:19;;;;;;;38.72;19.20;;;2.30;99.90;;;;;;5054250;28;20734;-80
2021/03/19 06:07:48;;;;;;;41.40;20.80;;;2.40;99.90;;;;;;5055533;28;20225;-81
2021/03/19 06:10:26;;;;;;;39.53;19.88;;;2.50;99.90;;;;;;5055504;28;20285;-82
2021/03/19 06:12:57;;;;;;;41.97;19.27;;;2.60;99.90;;;;;;5055117;28;20194;-83
2021/03/19 06:15:28;;;;;;;40.15;20.40;;;2.60;99.90;;;;;;5055379;28;20194;-87
2021/03/19 06:17:56;;;;;;;40.90;18.80;;;2.70;99.90;;;;;;5055559;28;20190;-87
2021/03/19 06:20:24;;;;;;;42.17;20.40;;;2.70;99.90;;;;;;5050680;28;20274;-78
2021/03/19 06:23:00;;;;;;;38.40;22.23;;;2.70;99.90;;;;;;5045072;28;20544;-79
2021/03/19 06:25:29;;;;;;;35.10;19.90;;;2.80;99.90;;;;;;5054513;28;20680;-78
2021/03/19 06:27:58;;;;;;;38.70;17.65;;;2.90;99.90;;;;;;5053939;28;20285;-79
2021/03/19 06:30:28;;;;;;;38.53;19.05;;;3.20;99.90;;;;;;5055160;28;20530;-81
2021/03/19 06:33:06;;;;;;;29.33;17.27;;;3.40;99.90;;;;;;5046097;28;20542;-81
2021/03/19 06:35:35;;;;;;;26.83;16.17;;;3.40;99.90;;;;;;5035252;28;20218;-81
2021/03/19 06:38:29;;;;;;;29.75;17.88;;;3.30;99.90;;;;;;5034410;28;20220;-81
2021/03/19 06:40:56;;;;;;;23.88;15.90;;;3.10;99.90;;;;;;5035224;28;20227;-79
2021/03/19 06:43:26;;;;;;;23.45;14.30;;;2.90;99.90;;;;;;5034645;28;20190;-80
2021/03/19 06:46:10;;;;;;;28.38;16.80;;;2.80;99.90;;;;;;5035058;28;20197;-80
2021/03/19 06:48:38;;;;;;;30.83;15.30;;;3.00;99.90;;;;;;5035073;28;20285;-80
2021/03/19 06:51:10;;;;;;;28.05;16.27;;;3.30;99.90;;;;;;5034762;28;20217;-80
2021/03/19 06:53:37;;;;;;;25.52;16.00;;;3.70;99.90;;;;;;5034847;28;20241;-81
2021/03/19 06:56:15;;;;;;;24.60;16.13;;;4.10;99.90;;;;;;5034765;28;20285;-79
2021/03/19 06:58:46;;;;;;;25.63;15.90;;;4.60;99.90;;;;;;5034573;28;20230;-79
2021/03/19 07:01:29;;;;;;;27.23;17.58;;;4.60;99.90;;;;;;5034793;28;20292;-79
2021/03/19 07:04:28;;;;;;;24.67;15.90;;;4.50;99.90;;;;;;5034733;28;20272;-79
2021/03/19 07:07:05;;;;;;;23.83;15.32;;;4.30;99.90;;;;;;5001503;28;20248;-80
2021/03/19 07:09:45;;;;;;;23.25;15.93;;;4.00;99.90;;;;;;5034635;28;20273;-81
2021/03/19 07:12:28;;;;;;;26.50;16.73;;;3.90;99.90;;;;;;5034566;28;20218;-80
2021/03/19 07:15:27;;;;;;;23.45;16.25;;;3.90;99.90;;;;;;5034409;28;20198;-81
2021/03/19 07:17:56;;;;;;;23.42;15.38;;;4.00;99.90;;;;;;5034339;28;20725;-81
2021/03/19 07:20:49;;;;;;;26.17;15.80;;;4.10;99.90;;;;;;5034249;28;20198;-80
2021/03/19 07:23:18;;;;;;;23.52;13.75;;;4.10;99.90;;;;;;5034261;28;20194;-79
2021/03/19 07:26:03;;;;;;;20.58;14.05;;;4.00;99.90;;;;;;5034044;28;20206;-80
2021/03/19 07:28:44;;;;;;;18.75;12.88;;;4.10;99.90;;;;;;5034433;28;20557;-80
2021/03/19 07:31:29;;;;;;;20.48;13.32;;;4.20;99.90;;;;;;5034036;28;20221;-80
2021/03/19 07:34:09;;;;;;;21.73;14.02;;;4.40;99.90;;;;;;5051308;28;20217;-80
2021/03/19 07:36:50;;;;;;;21.77;13.93;;;4.60;99.90;;;;;;5054137;28;20284;-80
2021/03/19 07:39:55;;;;;;;18.88;12.73;;;4.60;99.90;;;;;;5053961;28;20281;-81
2021/03/19 07:42:46;;;;;;;19.65;12.32;;;4.70;99.90;;;;;;5038184;28;20193;-80
2021/03/19 07:45:20;;;;;;;13.90;10.32;;;4.60;99.90;;;;;;5053564;28;20194;-80
2021/03/19 07:48:17;;;;;;;22.40;12.70;;;4.60;99.90;;;;;;5053913;28;20653;-80
2021/03/19 07:50:51;;;;;;;16.75;12.10;;;4.60;99.90;;;;;;5053096;28;20253;-80
2021/03/19 07:53:37;;;;;;;15.35;11.65;;;4.80;99.90;;;;;;5053708;28;20186;-80
2021/03/19 07:56:17;;;;;;;15.25;11.50;;;5.00;99.90;;;;;;5053549;28;20190;-80
2021/03/19 07:58:52;;;;;;;16.17;11.93;;;5.20;99.90;;;;;;5053551;28;20593;-80
2021/03/19 08:01:27;;;;;;;17.15;12.30;;;5.40;99.90;;;;;;5053299;28;20232;-81
2021/03/19 08:04:04;;;;;;;18.65;11.27;;;5.60;99.90;;;;;;5053686;28;20219;-80
2021/03/19 08:06:34;;;;;;;17.02;10.80;;;5.60;99.90;;;;;;5053370;28;20284;-80
2021/03/19 08:09:05;;;;;;;15.43;11.38;;;5.40;99.90;;;;;;5053387;28;20201;-80
2021/03/19 08:11:39;;;;;;;20.45;12.35;;;5.10;99.90;;;;;;5052958;28;20225;-80
2021/03/19 08:14:26;;;;;;;18.15;12.18;;;5.00;99.90;;;;;;5053131;28;20248;-80
2021/03/19 08:16:58;;;;;;;12.77;10.27;;;4.90;99.90;;;;;;5053342;28;20198;-80
2021/03/19 08:19:33;;;;;;;18.85;11.27;;;4.80;99.90;;;;;;5053114;28;20277;-80
2021/03/19 08:22:11;;;;;;;14.82;10.52;;;4.70;99.90;;;;;;5052992;28;20280;-81
2021/03/19 08:24:47;;;;;;;16.92;11.57;;;4.80;99.90;;;;;;5052895;28;20279;-81
2021/03/19 08:27:19;;;;;;;14.43;9.90;;;4.90;99.90;;;;;;5053051;28;20652;-81
2021/03/19 08:30:02;;;;;;;15.40;8.95;;;5.20;99.90;;;;;;5052929;28;20197;-79
2021/03/19 08:32:37;;;;;;;14.70;9.73;;;5.20;99.90;;;;;;5047312;28;20218;-80
2021/03/19 08:35:19;;;;;;;14.75;10.05;;;5.10;99.90;;;;;;5032905;28;20665;-80
2021/03/19 08:37:51;;;;;;;15.55;10.80;;;4.90;99.90;;;;;;5033108;28;20198;-81
2021/03/19 08:40:34;;;;;;;12.98;10.40;;;5.00;99.90;;;;;;5032976;28;20743;-80
2021/03/19 08:43:03;;;;;;;12.73;10.45;;;5.10;99.90;;;;;;5032853;28;20198;-79
2021/03/19 08:45:31;;;;;;;12.85;8.93;;;5.10;99.90;;;;;;5032923;28;20191;-78
2021/03/19 08:48:01;;;;;;;13.63;9.80;;;5.20;99.90;;;;;;5032852;28;20642;-78
2021/03/19 08:50:35;;;;;;;11.55;7.93;;;5.10;99.90;;;;;;5032534;28;20721;-78
2021/03/19 08:53:05;;;;;;;17.10;10.30;;;5.00;99.90;;;;;;5045207;28;20545;-78
2021/03/19 08:55:33;;;;;;;15.57;9.80;;;5.00;99.90;;;;;;5051384;28;20284;-78
2021/03/19 08:58:38;;;;;;;11.63;8.50;;;5.00;99.90;;;;;;5052536;28;20249;-78
2021/03/19 09:01:06;;;;;;;9.10;7.35;;;4.90;99.90;;;;;;5044864;28;20189;-78
2021/03/19 09:03:54;;;;;;;9.45;6.50;;;4.60;99.90;;;;;;5055026;28;20209;-77
2021/03/19 09:06:31;;;;;;;9.98;6.78;;;4.10;99.90;;;;;;5050283;28;20188;-77
2021/03/19 09:09:00;;;;;;;11.45;6.88;;;3.70;99.90;;;;;;5045800;28;20186;-78
2021/03/19 09:11:59;;;;;;;11.50;7.57;;;3.60;99.90;;;;;;5055932;28;20237;-78
2021/03/19 09:14:39;;;;;;;10.35;8.50;;;3.80;99.90;;;;;;5050220;28;20201;-77
2021/03/19 09:17:06;;;;;;;12.20;8.15;;;3.90;99.90;;;;;;5053219;28;20235;-77
2021/03/19 09:20:01;;;;;;;15.88;8.88;;;4.10;99.90;;;;;;5057059;28;20586;-78
2021/03/19 09:22:35;;;;;;;14.02;9.25;;;4.40;99.90;;;;;;5040125;28;20191;-78
2021/03/19 09:25:37;;;;;;;13.13;9.85;;;4.50;99.90;;;;;;5057745;28;20221;-78
2021/03/19 09:28:38;;;;;;;12.32;8.15;;;4.80;99.90;;;;;;5037814;28;20214;-77
2021/03/19 09:31:28;;;;;;;11.75;9.23;;;5.10;99.90;;;;;;5046254;28;20206;-81
2021/03/19 09:34:08;;;;;;;13.20;8.02;;;5.30;99.90;;;;;;5053952;28;20189;-78
2021/03/19 09:36:58;;;;;;;8.77;6.88;;;5.50;99.90;;;;;;5042837;28;20187;-78
2021/03/19 09:39:55;;;;;;;7.38;6.38;;;5.80;99.90;;;;;;5050927;28;20196;-78
2021/03/19 09:42:44;;;;;;;7.32;6.40;;;5.60;99.90;;;;;;5050091;28;20653;-77
2021/03/19 09:45:31;;;;;;;8.20;7.05;;;4.90;99.90;;;;;;5047609;28;20217;-77
2021/03/19 09:48:23;;;;;;;8.98;6.30;;;4.80;99.90;;;;;;5056190;28;20194;-78
2021/03/19 09:50:57;;;;;;;10.80;6.07;;;4.80;99.90;;;;;;5057710;28;20220;-78
2021/03/19 09:53:28;;;;;;;9.57;6.25;;;4.70;99.90;;;;;;5045347;28;20240;-78
2021/03/19 09:55:57;;;;;;;6.68;5.65;;;4.70;99.90;;;;;;5058540;28;20190;-78
2021/03/19 09:58:28;;;;;;;7.60;6.38;;;4.70;99.90;;;;;;5058788;28;20189;-78
2021/03/19 10:00:58;;;;;;;6.85;5.95;;;4.50;99.90;;;;;;5050921;28;20189;-78
2021/03/19 10:03:24;;;;;;;7.35;4.75;;;4.50;99.90;;;;;;5051197;28;20715;-78
2021/03/19 10:05:51;;;;;;;4.35;3.95;;;4.60;99.90;;;;;;5049073;28;20232;-78
2021/03/19 10:08:26;;;;;;;4.38;3.97;;;5.00;99.90;;;;;;5043787;28;20191;-78
2021/03/19 10:11:04;;;;;;;5.30;4.40;;;5.40;99.90;;;;;;5057521;28;20224;-78
2021/03/19 10:13:30;;;;;;;4.43;3.92;;;5.60;99.90;;;;;;5048710;28;20185;-78
2021/03/19 10:15:58;;;;;;;5.75;4.40;;;5.50;99.90;;;;;;5046702;28;20193;-78
2021/03/19 10:18:29;;;;;;;4.03;3.70;;;5.30;99.90;;;;;;5055083;28;20192;-78
2021/03/19 10:20:58;;;;;;;3.42;3.17;;;5.10;99.90;;;;;;5038411;28;20273;-78
2021/03/19 10:23:31;;;;;;;5.75;4.10;;;5.00;99.90;;;;;;5044573;28;20592;-78
2021/03/19 10:26:08;;;;;;;5.05;4.55;;;5.00;99.90;;;;;;5046514;28;20186;-78
2021/03/19 10:28:36;;;;;;;5.05;4.55;;;5.00;99.90;;;;;;5038441;28;20186;-78
2021/03/19 10:31:06;;;;;;;5.50;4.28;;;5.10;99.90;;;;;;5050550;28;20238;-78
2021/03/19 10:33:37;;;;;;;5.50;4.43;;;5.20;99.90;;;;;;5040958;28;20660;-78
2021/03/19 10:36:07;;;;;;;6.78;5.05;;;5.10;99.90;;;;;;5047503;28;20576;-78
2021/03/19 10:38:39;;;;;;;6.57;5.00;;;5.10;99.90;;;;;;5038366;28;20195;-78
2021/03/19 10:41:12;;;;;;;5.75;5.00;;;5.40;99.90;;;;;;5050126;28;20218;-78
2021/03/19 10:43:45;;;;;;;5.57;5.03;;;5.80;99.90;;;;;;5039768;28;20638;-79
2021/03/19 10:46:18;;;;;;;7.10;5.90;;;5.70;99.90;;;;;;5048189;28;20197;-79
2021/03/19 10:48:49;;;;;;;5.63;5.13;;;5.70;99.90;;;;;;5045349;28;20198;-78
2021/03/19 10:51:41;;;;;;;6.30;5.68;;;5.60;99.90;;;;;;5044629;28;20213;-78
2021/03/19 10:54:16;;;;;;;6.07;5.28;;;5.50;99.90;;;;;;5034035;28;20194;-78
2021/03/19 10:56:50;;;;;;;5.55;5.05;;;5.60;99.90;;;;;;5042675;28;20196;-78
2021/03/19 10:59:29;;;;;;;4.80;4.30;;;5.90;99.90;;;;;;5043095;28;20186;-78
2021/03/19 11:02:07;;;;;;;4.38;4.00;;;6.40;99.90;;;;;;5043760;28;20209;-78
2021/03/19 11:04:35;;;;;;;4.03;3.65;;;6.60;99.90;;;;;;5040796;28;20185;-78
2021/03/19 11:07:17;;;;;;;4.65;3.20;;;6.50;99.90;;;;;;5048933;28;20189;-78
2021/03/19 11:09:59;;;;;;;2.95;2.72;;;6.50;99.90;;;;;;5049103;28;20637;-80
2021/03/19 11:12:33;;;;;;;2.70;2.00;;;6.10;99.90;;;;;;5038490;28;20621;-78
2021/03/19 11:15:00;;;;;;;2.55;1.80;;;5.90;99.90;;;;;;5054076;28;20185;-78
2021/03/19 11:17:26;;;;;;;5.90;2.08;;;5.40;99.90;;;;;;5046309;28;20179;-78
2021/03/19 11:20:01;;;;;;;2.75;1.80;;;5.30;99.90;;;;;;5034531;28;20658;-78
2021/03/19 11:22:35;;;;;;;2.58;1.92;;;5.30;99.90;;;;;;5038386;28;20201;-78
2021/03/19 11:25:24;;;;;;;2.47;1.92;;;5.30;99.90;;;;;;5039036;28;20226;-78
2021/03/19 11:27:52;;;;;;;4.22;2.47;;;5.10;99.90;;;;;;5038295;28;20187;-78
2021/03/19 11:30:29;;;;;;;3.60;2.35;;;4.90;99.90;;;;;;5043088;28;20261;-78
2021/03/19 11:33:01;;;;;;;6.47;2.88;;;4.80;99.90;;;;;;5041061;28;20213;-78
2021/03/19 11:35:27;;;;;;;4.57;2.85;;;4.90;99.90;;;;;;5047012;28;20576;-78
2021/03/19 11:37:54;;;;;;;2.33;2.10;;;4.70;99.90;;;;;;5041654;28;20190;-78
2021/03/19 11:40:38;;;;;;;4.32;2.55;;;4.80;99.90;;;;;;5045444;28;20182;-79
2021/03/19 11:43:07;;;;;;;2.85;1.92;;;5.00;99.90;;;;;;5045272;28;20213;-78
2021/03/19 11:45:37;;;;;;;3.35;2.75;;;5.40;99.90;;;;;;5042036;28;20187;-78
2021/03/19 11:48:26;;;;;;;4.45;2.42;;;5.80;99.90;;;;;;5053079;28;20189;-78
2021/03/19 11:50:54;;;;;;;2.50;2.30;;;5.90;99.90;;;;;;5067116;28;20676;-78
2021/03/19 11:53:25;;;;;;;4.82;3.20;;;5.80;99.90;;;;;;5050787;28;20186;-78
2021/03/19 11:55:54;;;;;;;3.22;2.42;;;5.60;99.90;;;;;;5048787;28;20185;-78
2021/03/19 11:58:24;;;;;;;3.15;2.53;;;5.30;99.90;;;;;;5058170;28;20189;-78
2021/03/19 12:00:50;;;;;;;2.90;2.40;;;5.30;99.90;;;;;;5036437;28;20183;-78
2021/03/19 12:03:19;;;;;;;5.57;2.53;;;5.30;99.90;;;;;;5046833;28;20280;-78
2021/03/19 12:05:45;;;;;;;4.85;2.20;;;5.40;99.90;;;;;;5043167;28;20285;-78
2021/03/19 12:08:11;;;;;;;1.70;1.58;;;5.50;99.90;;;;;;5053023;28;20189;-78
2021/03/19 12:10:38;;;;;;;3.28;1.92;;;5.60;99.90;;;;;;5036387;28;20193;-78
2021/03/19 12:13:06;;;;;;;4.40;2.00;;;5.40;99.90;;;;;;5048243;28;20215;-78
2021/03/19 12:15:35;;;;;;;2.13;1.73;;;5.40;99.90;;;;;;5041604;28;20189;-78
2021/03/19 12:18:02;;;;;;;2.03;1.80;;;5.50;99.90;;;;;;5052725;28;20190;-78
2021/03/19 12:20:28;;;;;;;2.30;2.10;;;5.50;99.90;;;;;;5036847;28;20194;-78
2021/03/19 12:22:55;;;;;;;3.45;2.25;;;5.60;99.90;;;;;;5052308;28;20300;-78
2021/03/19 12:25:24;;;;;;;2.33;1.60;;;5.80;99.90;;;;;;5045656;28;20273;-78
2021/03/19 12:27:51;;;;;;;3.05;1.40;;;5.90;99.90;;;;;;5043317;28;20189;-78
2021/03/19 12:30:18;;;;;;;6.18;2.00;;;5.80;99.90;;;;;;5038125;28;20197;-78
2021/03/19 12:32:46;;;;;;;1.77;1.40;;;5.90;99.90;;;;;;5038209;28;20221;-78
2021/03/19 12:35:13;;;;;;;2.47;1.85;;;5.70;99.90;;;;;;5038236;28;20637;-78
2021/03/19 12:37:39;;;;;;;3.70;2.25;;;5.80;99.90;;;;;;5042111;28;20248;-79
2021/03/19 12:40:07;;;;;;;2.80;1.88;;;5.90;99.90;;;;;;5032617;28;20241;-78
2021/03/19 12:42:34;;;;;;;1.55;1.25;;;5.80;99.90;;;;;;5048945;28;20629;-78
2021/03/19 12:45:00;;;;;;;2.38;1.40;;;5.90;99.90;;;;;;5036521;28;20189;-78
2021/03/19 12:47:26;;;;;;;3.80;1.40;;;6.00;99.90;;;;;;5041837;28;20198;-79
2021/03/19 12:49:53;;;;;;;2.03;1.05;;;5.70;99.90;;;;;;5038659;28;20189;-79
2021/03/19 12:52:19;;;;;;;2.42;1.27;;;5.70;99.90;;;;;;5032814;28;20215;-78
2021/03/19 12:54:46;;;;;;;2.85;1.50;;;5.60;99.90;;;;;;5048966;28;20330;-78
2021/03/19 12:57:13;;;;;;;1.90;1.70;;;5.40;99.90;;;;;;5038539;28;20181;-78
2021/03/19 12:59:42;;;;;;;1.05;0.95;;;5.20;99.90;;;;;;5045735;28;20619;-78
2021/03/19 13:02:08;;;;;;;1.30;1.10;;;5.00;99.90;;;;;;5046921;28;20552;-78
2021/03/19 13:04:34;;;;;;;1.30;1.20;;;5.10;99.90;;;;;;5036657;28;20190;-78
2021/03/19 13:07:02;;;;;;;1.65;1.23;;;5.00;99.90;;;;;;5052836;28;20194;-78
2021/03/19 13:09:28;;;;;;;1.50;1.40;;;4.90;99.90;;;;;;5052695;28;20201;-81
2021/03/19 13:11:54;;;;;;;1.95;1.48;;;5.00;99.90;;;;;;5052889;28;20221;-79
2021/03/19 13:14:20;;;;;;;2.10;1.52;;;4.90;99.90;;;;;;5053498;28;20220;-78